sensor_id;sensor_type;location;lat;lon;timestamp;P1;durP1;ratioP1;P2;durP2;ratioP2
9986;SDS011;5033;46.310;11.214;2023-11-21T00:01:21;4.93;;;4.53;;
9986;SDS011;5033;46.310;11.214;2023-11-21T00:03:48;4.68;;;4.28;;
9986;SDS011;5033;46.310;11.214;2023-11-21T00:06:15;4.90;;;4.50;;
9986;SDS011;5033;46.310;11.214;2023-11-21T00:08:43;5.85;;;5.20;;
9986;SDS011;5033;46.310;11.214;2023-11-21T00:11:11;4.90;;;4.50;;
9986;SDS011;5033;46.310;11.214;2023-11-21T00:13:38;4.95;;;4.55;;
9986;SDS011;5033;46.310;11.214;2023-11-21T00:16:05;5.70;;;5.20;;
9986;SDS011;5033;46.310;11.214;2023-11-21T00:18:33;5.55;;;5.00;;
9986;SDS011;5033;46.310;11.214;2023-11-21T00:21:01;4.50;;;4.20;;
9986;SDS011;5033;46.310;11.214;2023-11-21T00:23:28;5.18;;;4.78;;
9986;SDS011;5033;46.310;11.214;2023-11-21T00:25:55;4.63;;;4.22;;
9986;SDS011;5033;46.310;11.214;2023-11-21T00:28:24;5.00;;;4.60;;
9986;SDS011;5033;46.310;11.214;2023-11-21T00:30:52;4.63;;;4.30;;
9986;SDS011;5033;46.310;11.214;2023-11-21T00:33:19;4.85;;;4.47;;
9986;SDS011;5033;46.310;11.214;2023-11-21T00:35:46;4.57;;;4.28;;
9986;SDS011;5033;46.310;11.214;2023-11-21T00:38:13;4.85;;;4.55;;
9986;SDS011;5033;46.310;11.214;2023-11-21T00:40:40;4.90;;;4.50;;
9986;SDS011;5033;46.310;11.214;2023-11-21T00:43:07;4.38;;;4.07;;
9986;SDS011;5033;46.310;11.214;2023-11-21T00:45:35;4.85;;;4.45;;
9986;SDS011;5033;46.310;11.214;2023-11-21T00:48:02;4.70;;;4.30;;
9986;SDS011;5033;46.310;11.214;2023-11-21T00:50:30;4.88;;;4.57;;
9986;SDS011;5033;46.310;11.214;2023-11-21T00:52:57;4.97;;;4.60;;
9986;SDS011;5033;46.310;11.214;2023-11-21T00:55:24;5.10;;;4.72;;
9986;SDS011;5033;46.310;11.214;2023-11-21T00:57:51;5.55;;;5.10;;
9986;SDS011;5033;46.310;11.214;2023-11-21T01:00:18;5.50;;;5.10;;
9986;SDS011;5033;46.310;11.214;2023-11-21T01:02:50;5.32;;;4.93;;
9986;SDS011;5033;46.310;11.214;2023-11-21T01:05:17;5.13;;;4.72;;
9986;SDS011;5033;46.310;11.214;2023-11-21T01:07:44;5.07;;;4.68;;
9986;SDS011;5033;46.310;11.214;2023-11-21T01:10:11;5.22;;;4.82;;
9986;SDS011;5033;46.310;11.214;2023-11-21T01:12:39;5.40;;;4.55;;
9986;SDS011;5033;46.310;11.214;2023-11-21T01:15:07;4.78;;;4.47;;
9986;SDS011;5033;46.310;11.214;2023-11-21T01:17:34;4.82;;;4.50;;
9986;SDS011;5033;46.310;11.214;2023-11-21T01:20:03;4.82;;;4.45;;
9986;SDS011;5033;46.310;11.214;2023-11-21T01:22:35;4.85;;;4.53;;
9986;SDS011;5033;46.310;11.214;2023-11-21T01:25:03;4.70;;;4.40;;
9986;SDS011;5033;46.310;11.214;2023-11-21T01:27:32;4.43;;;4.13;;
9986;SDS011;5033;46.310;11.214;2023-11-21T01:29:59;4.30;;;4.00;;
9986;SDS011;5033;46.310;11.214;2023-11-21T01:32:26;4.35;;;4.05;;
9986;SDS011;5033;46.310;11.214;2023-11-21T01:34:53;4.90;;;4.50;;
9986;SDS011;5033;46.310;11.214;2023-11-21T01:37:22;4.10;;;3.80;;
9986;SDS011;5033;46.310;11.214;2023-11-21T01:39:52;4.95;;;4.55;;
9986;SDS011;5033;46.310;11.214;2023-11-21T01:42:20;4.85;;;4.45;;
9986;SDS011;5033;46.310;11.214;2023-11-21T01:44:47;4.50;;;4.20;;
9986;SDS011;5033;46.310;11.214;2023-11-21T01:47:14;4.65;;;4.35;;
9986;SDS011;5033;46.310;11.214;2023-11-21T01:49:43;4.18;;;3.88;;
9986;SDS011;5033;46.310;11.214;2023-11-21T01:52:11;4.40;;;4.10;;
9986;SDS011;5033;46.310;11.214;2023-11-21T01:54:40;4.20;;;3.90;;
9986;SDS011;5033;46.310;11.214;2023-11-21T01:57:07;4.32;;;3.92;;
9986;SDS011;5033;46.310;11.214;2023-11-21T01:59:35;4.25;;;3.95;;
9986;SDS011;5033;46.310;11.214;2023-11-21T02:02:03;4.43;;;4.13;;
9986;SDS011;5033;46.310;11.214;2023-11-21T02:04:31;4.30;;;4.00;;
9986;SDS011;5033;46.310;11.214;2023-11-21T02:06:58;4.43;;;4.13;;
9986;SDS011;5033;46.310;11.214;2023-11-21T02:09:25;4.47;;;4.18;;
9986;SDS011;5033;46.310;11.214;2023-11-21T02:11:55;4.32;;;4.03;;
9986;SDS011;5033;46.310;11.214;2023-11-21T02:14:23;4.45;;;4.05;;
9986;SDS011;5033;46.310;11.214;2023-11-21T02:16:51;4.68;;;4.30;;
9986;SDS011;5033;46.310;11.214;2023-11-21T02:19:19;4.43;;;4.13;;
9986;SDS011;5033;46.310;11.214;2023-11-21T02:21:50;4.97;;;4.47;;
9986;SDS011;5033;46.310;11.214;2023-11-21T02:24:20;4.38;;;4.07;;
9986;SDS011;5033;46.310;11.214;2023-11-21T02:26:47;4.78;;;4.38;;
9986;SDS011;5033;46.310;11.214;2023-11-21T02:29:16;4.82;;;4.35;;
9986;SDS011;5033;46.310;11.214;2023-11-21T02:31:43;4.63;;;4.32;;
9986;SDS011;5033;46.310;11.214;2023-11-21T02:34:14;4.70;;;4.40;;
9986;SDS011;5033;46.310;11.214;2023-11-21T02:36:41;4.65;;;4.30;;
9986;SDS011;5033;46.310;11.214;2023-11-21T02:39:08;4.65;;;4.28;;
9986;SDS011;5033;46.310;11.214;2023-11-21T02:41:37;5.10;;;4.72;;
9986;SDS011;5033;46.310;11.214;2023-11-21T02:44:05;4.30;;;4.00;;
9986;SDS011;5033;46.310;11.214;2023-11-21T02:46:32;4.20;;;3.90;;
9986;SDS011;5033;46.310;11.214;2023-11-21T02:49:00;4.68;;;4.38;;
9986;SDS011;5033;46.310;11.214;2023-11-21T02:51:27;4.55;;;4.25;;
9986;SDS011;5033;46.310;11.214;2023-11-21T02:53:54;4.50;;;4.20;;
9986;SDS011;5033;46.310;11.214;2023-11-21T02:56:23;4.93;;;4.53;;
9986;SDS011;5033;46.310;11.214;2023-11-21T02:58:52;5.18;;;4.38;;
9986;SDS011;5033;46.310;11.214;2023-11-21T03:01:21;5.00;;;4.60;;
9986;SDS011;5033;46.310;11.214;2023-11-21T03:03:49;4.15;;;3.85;;
9986;SDS011;5033;46.310;11.214;2023-11-21T03:06:16;5.15;;;4.70;;
9986;SDS011;5033;46.310;11.214;2023-11-21T03:08:43;4.25;;;3.95;;
9986;SDS011;5033;46.310;11.214;2023-11-21T03:11:10;4.28;;;3.97;;
9986;SDS011;5033;46.310;11.214;2023-11-21T03:13:38;4.18;;;3.88;;
9986;SDS011;5033;46.310;11.214;2023-11-21T03:16:08;4.45;;;4.15;;
9986;SDS011;5033;46.310;11.214;2023-11-21T03:18:35;4.75;;;4.32;;
9986;SDS011;5033;46.310;11.214;2023-11-21T03:21:02;4.60;;;4.20;;
9986;SDS011;5033;46.310;11.214;2023-11-21T03:23:30;4.65;;;4.28;;
9986;SDS011;5033;46.310;11.214;2023-11-21T03:25:57;4.65;;;4.35;;
9986;SDS011;5033;46.310;11.214;2023-11-21T03:28:25;4.15;;;3.85;;
9986;SDS011;5033;46.310;11.214;2023-11-21T03:30:52;4.28;;;3.97;;
9986;SDS011;5033;46.310;11.214;2023-11-21T03:33:20;4.10;;;3.80;;
9986;SDS011;5033;46.310;11.214;2023-11-21T03:35:47;4.43;;;4.13;;
9986;SDS011;5033;46.310;11.214;2023-11-21T03:38:14;4.57;;;4.28;;
9986;SDS011;5033;46.310;11.214;2023-11-21T03:40:42;4.53;;;4.22;;
9986;SDS011;5033;46.310;11.214;2023-11-21T03:43:09;4.95;;;4.55;;
9986;SDS011;5033;46.310;11.214;2023-11-21T03:45:36;4.75;;;4.38;;
9986;SDS011;5033;46.310;11.214;2023-11-21T03:48:05;4.32;;;4.03;;
9986;SDS011;5033;46.310;11.214;2023-11-21T03:50:34;4.65;;;4.25;;
9986;SDS011;5033;46.310;11.214;2023-11-21T03:53:01;4.80;;;4.40;;
9986;SDS011;5033;46.310;11.214;2023-11-21T03:55:28;4.25;;;3.95;;
9986;SDS011;5033;46.310;11.214;2023-11-21T03:57:56;4.88;;;4.53;;
9986;SDS011;5033;46.310;11.214;2023-11-21T04:00:24;4.57;;;4.20;;
9986;SDS011;5033;46.310;11.214;2023-11-21T04:02:51;4.47;;;4.18;;
9986;SDS011;5033;46.310;11.214;2023-11-21T04:05:19;4.72;;;4.32;;
9986;SDS011;5033;46.310;11.214;2023-11-21T04:07:48;4.18;;;3.97;;
9986;SDS011;5033;46.310;11.214;2023-11-21T04:10:16;4.70;;;4.30;;
9986;SDS011;5033;46.310;11.214;2023-11-21T04:12:43;4.95;;;4.60;;
9986;SDS011;5033;46.310;11.214;2023-11-21T04:15:10;4.20;;;3.90;;
9986;SDS011;5033;46.310;11.214;2023-11-21T04:17:38;4.43;;;4.13;;
9986;SDS011;5033;46.310;11.214;2023-11-21T04:20:06;4.10;;;3.80;;
9986;SDS011;5033;46.310;11.214;2023-11-21T04:22:36;4.20;;;3.90;;
9986;SDS011;5033;46.310;11.214;2023-11-21T04:25:07;4.47;;;4.18;;
9986;SDS011;5033;46.310;11.214;2023-11-21T04:27:35;4.70;;;4.40;;
9986;SDS011;5033;46.310;11.214;2023-11-21T04:30:02;6.15;;;4.85;;
9986;SDS011;5033;46.310;11.214;2023-11-21T04:32:30;4.70;;;4.40;;
9986;SDS011;5033;46.310;11.214;2023-11-21T04:34:57;5.10;;;4.60;;
9986;SDS011;5033;46.310;11.214;2023-11-21T04:37:24;4.53;;;4.22;;
9986;SDS011;5033;46.310;11.214;2023-11-21T04:39:51;5.38;;;4.97;;
9986;SDS011;5033;46.310;11.214;2023-11-21T04:42:19;5.13;;;4.72;;
9986;SDS011;5033;46.310;11.214;2023-11-21T04:44:46;5.15;;;4.70;;
9986;SDS011;5033;46.310;11.214;2023-11-21T04:47:13;4.93;;;4.63;;
9986;SDS011;5033;46.310;11.214;2023-11-21T04:49:41;4.88;;;4.47;;
9986;SDS011;5033;46.310;11.214;2023-11-21T04:52:09;5.28;;;4.88;;
9986;SDS011;5033;46.310;11.214;2023-11-21T04:54:36;4.55;;;4.25;;
9986;SDS011;5033;46.310;11.214;2023-11-21T04:57:05;5.05;;;4.75;;
9986;SDS011;5033;46.310;11.214;2023-11-21T04:59:33;5.53;;;5.13;;
9986;SDS011;5033;46.310;11.214;2023-11-21T05:02:01;6.28;;;5.72;;
9986;SDS011;5033;46.310;11.214;2023-11-21T05:04:28;5.72;;;5.32;;
9986;SDS011;5033;46.310;11.214;2023-11-21T05:06:55;7.25;;;6.65;;
9986;SDS011;5033;46.310;11.214;2023-11-21T05:09:22;6.10;;;5.60;;
9986;SDS011;5033;46.310;11.214;2023-11-21T05:11:49;6.13;;;5.68;;
9986;SDS011;5033;46.310;11.214;2023-11-21T05:14:16;6.00;;;5.50;;
9986;SDS011;5033;46.310;11.214;2023-11-21T05:16:45;5.95;;;5.55;;
9986;SDS011;5033;46.310;11.214;2023-11-21T05:19:12;5.82;;;5.43;;
9986;SDS011;5033;46.310;11.214;2023-11-21T05:21:39;5.35;;;4.95;;
9986;SDS011;5033;46.310;11.214;2023-11-21T05:24:06;5.10;;;4.72;;
9986;SDS011;5033;46.310;11.214;2023-11-21T05:26:34;5.88;;;5.38;;
9986;SDS011;5033;46.310;11.214;2023-11-21T05:29:01;5.70;;;5.30;;
9986;SDS011;5033;46.310;11.214;2023-11-21T05:31:28;5.53;;;5.13;;
9986;SDS011;5033;46.310;11.214;2023-11-21T05:33:57;5.95;;;5.55;;
9986;SDS011;5033;46.310;11.214;2023-11-21T05:36:24;5.40;;;5.00;;
9986;SDS011;5033;46.310;11.214;2023-11-21T05:38:51;5.18;;;4.78;;
9986;SDS011;5033;46.310;11.214;2023-11-21T05:41:18;5.18;;;4.78;;
9986;SDS011;5033;46.310;11.214;2023-11-21T05:43:45;6.60;;;6.00;;
9986;SDS011;5033;46.310;11.214;2023-11-21T05:46:12;5.97;;;5.55;;
9986;SDS011;5033;46.310;11.214;2023-11-21T05:48:39;6.72;;;6.13;;
9986;SDS011;5033;46.310;11.214;2023-11-21T05:51:08;6.55;;;6.05;;
9986;SDS011;5033;46.310;11.214;2023-11-21T05:53:37;6.13;;;5.63;;
9986;SDS011;5033;46.310;11.214;2023-11-21T05:56:04;6.53;;;5.93;;
9986;SDS011;5033;46.310;11.214;2023-11-21T05:58:32;5.93;;;5.47;;
9986;SDS011;5033;46.310;11.214;2023-11-21T06:00:59;5.10;;;4.70;;
9986;SDS011;5033;46.310;11.214;2023-11-21T06:03:26;5.80;;;5.40;;
9986;SDS011;5033;46.310;11.214;2023-11-21T06:05:53;6.40;;;5.90;;
9986;SDS011;5033;46.310;11.214;2023-11-21T06:08:22;5.40;;;5.00;;
9986;SDS011;5033;46.310;11.214;2023-11-21T06:10:49;5.60;;;5.10;;
9986;SDS011;5033;46.310;11.214;2023-11-21T06:13:16;5.55;;;5.13;;
9986;SDS011;5033;46.310;11.214;2023-11-21T06:15:45;5.60;;;5.20;;
9986;SDS011;5033;46.310;11.214;2023-11-21T06:18:12;5.50;;;5.10;;
9986;SDS011;5033;46.310;11.214;2023-11-21T06:20:39;4.80;;;4.50;;
9986;SDS011;5033;46.310;11.214;2023-11-21T06:23:06;5.00;;;4.70;;
9986;SDS011;5033;46.310;11.214;2023-11-21T06:25:35;5.53;;;5.13;;
9986;SDS011;5033;46.310;11.214;2023-11-21T06:28:03;4.97;;;4.65;;
9986;SDS011;5033;46.310;11.214;2023-11-21T06:30:30;5.60;;;5.20;;
9986;SDS011;5033;46.310;11.214;2023-11-21T06:32:57;5.90;;;5.50;;
9986;SDS011;5033;46.310;11.214;2023-11-21T06:35:24;5.82;;;5.43;;
9986;SDS011;5033;46.310;11.214;2023-11-21T06:37:52;6.13;;;5.68;;
9986;SDS011;5033;46.310;11.214;2023-11-21T06:40:19;5.43;;;5.03;;
9986;SDS011;5033;46.310;11.214;2023-11-21T06:42:48;5.63;;;5.22;;
9986;SDS011;5033;46.310;11.214;2023-11-21T06:45:15;5.22;;;4.82;;
9986;SDS011;5033;46.310;11.214;2023-11-21T06:47:42;5.72;;;5.32;;
9986;SDS011;5033;46.310;11.214;2023-11-21T06:50:10;5.78;;;5.35;;
9986;SDS011;5033;46.310;11.214;2023-11-21T06:52:37;5.10;;;4.70;;
9986;SDS011;5033;46.310;11.214;2023-11-21T06:55:04;4.78;;;4.47;;
9986;SDS011;5033;46.310;11.214;2023-11-21T06:57:33;4.93;;;4.53;;
9986;SDS011;5033;46.310;11.214;2023-11-21T07:00:02;5.30;;;4.85;;
9986;SDS011;5033;46.310;11.214;2023-11-21T07:02:30;4.80;;;4.40;;
9986;SDS011;5033;46.310;11.214;2023-11-21T07:04:57;5.13;;;4.75;;
9986;SDS011;5033;46.310;11.214;2023-11-21T07:07:25;5.60;;;5.20;;
9986;SDS011;5033;46.310;11.214;2023-11-21T07:09:52;6.57;;;6.00;;
9986;SDS011;5033;46.310;11.214;2023-11-21T07:12:19;5.70;;;5.20;;
9986;SDS011;5033;46.310;11.214;2023-11-21T07:14:48;5.45;;;5.05;;
9986;SDS011;5033;46.310;11.214;2023-11-21T07:17:17;5.90;;;5.38;;
9986;SDS011;5033;46.310;11.214;2023-11-21T07:19:44;6.35;;;5.82;;
9986;SDS011;5033;46.310;11.214;2023-11-21T07:22:11;14.10;;;12.40;;
9986;SDS011;5033;46.310;11.214;2023-11-21T07:24:39;12.88;;;11.52;;
9986;SDS011;5033;46.310;11.214;2023-11-21T07:27:06;12.82;;;9.82;;
9986;SDS011;5033;46.310;11.214;2023-11-21T07:29:33;10.43;;;9.32;;
9986;SDS011;5033;46.310;11.214;2023-11-21T07:31:59;9.40;;;8.45;;
9986;SDS011;5033;46.310;11.214;2023-11-21T07:34:28;9.95;;;7.55;;
9986;SDS011;5033;46.310;11.214;2023-11-21T07:36:55;7.88;;;7.07;;
9986;SDS011;5033;46.310;11.214;2023-11-21T07:39:22;7.75;;;6.78;;
9986;SDS011;5033;46.310;11.214;2023-11-21T07:41:49;7.63;;;6.93;;
9986;SDS011;5033;46.310;11.214;2023-11-21T07:44:16;7.57;;;6.88;;
9986;SDS011;5033;46.310;11.214;2023-11-21T07:46:44;6.40;;;5.80;;
9986;SDS011;5033;46.310;11.214;2023-11-21T07:49:12;6.45;;;5.78;;
9986;SDS011;5033;46.310;11.214;2023-11-21T07:51:42;5.65;;;5.15;;
9986;SDS011;5033;46.310;11.214;2023-11-21T07:54:10;6.57;;;6.07;;
9986;SDS011;5033;46.310;11.214;2023-11-21T07:56:37;5.57;;;5.18;;
9986;SDS011;5033;46.310;11.214;2023-11-21T07:59:04;6.35;;;5.75;;
9986;SDS011;5033;46.310;11.214;2023-11-21T08:01:31;6.38;;;5.68;;
9986;SDS011;5033;46.310;11.214;2023-11-21T08:03:58;5.07;;;4.68;;
9986;SDS011;5033;46.310;11.214;2023-11-21T08:06:28;5.60;;;5.20;;
9986;SDS011;5033;46.310;11.214;2023-11-21T08:08:57;6.95;;;6.25;;
9986;SDS011;5033;46.310;11.214;2023-11-21T08:11:24;7.15;;;6.55;;
9986;SDS011;5033;46.310;11.214;2023-11-21T08:13:54;6.10;;;5.60;;
9986;SDS011;5033;46.310;11.214;2023-11-21T08:16:21;7.53;;;6.63;;
9986;SDS011;5033;46.310;11.214;2023-11-21T08:18:49;7.00;;;6.30;;
9986;SDS011;5033;46.310;11.214;2023-11-21T08:21:16;7.10;;;6.50;;
9986;SDS011;5033;46.310;11.214;2023-11-21T08:23:44;6.28;;;5.78;;
9986;SDS011;5033;46.310;11.214;2023-11-21T08:26:12;6.63;;;6.10;;
9986;SDS011;5033;46.310;11.214;2023-11-21T08:28:42;6.10;;;5.60;;
9986;SDS011;5033;46.310;11.214;2023-11-21T08:31:09;6.45;;;5.97;;
9986;SDS011;5033;46.310;11.214;2023-11-21T08:33:36;6.10;;;5.60;;
9986;SDS011;5033;46.310;11.214;2023-11-21T08:36:06;5.35;;;4.95;;
9986;SDS011;5033;46.310;11.214;2023-11-21T08:38:34;5.68;;;5.28;;
9986;SDS011;5033;46.310;11.214;2023-11-21T08:41:02;5.68;;;5.28;;
9986;SDS011;5033;46.310;11.214;2023-11-21T08:43:33;5.70;;;5.30;;
9986;SDS011;5033;46.310;11.214;2023-11-21T08:46:05;5.45;;;4.85;;
9986;SDS011;5033;46.310;11.214;2023-11-21T08:48:34;6.53;;;5.93;;
9986;SDS011;5033;46.310;11.214;2023-11-21T08:51:01;7.20;;;6.50;;
9986;SDS011;5033;46.310;11.214;2023-11-21T08:53:29;6.30;;;5.80;;
9986;SDS011;5033;46.310;11.214;2023-11-21T08:55:56;6.93;;;6.32;;
9986;SDS011;5033;46.310;11.214;2023-11-21T08:58:23;6.10;;;5.50;;
9986;SDS011;5033;46.310;11.214;2023-11-21T09:00:52;6.55;;;6.05;;
9986;SDS011;5033;46.310;11.214;2023-11-21T09:03:19;6.18;;;5.78;;
9986;SDS011;5033;46.310;11.214;2023-11-21T09:05:46;7.63;;;6.20;;
9986;SDS011;5033;46.310;11.214;2023-11-21T09:08:13;6.40;;;5.80;;
9986;SDS011;5033;46.310;11.214;2023-11-21T09:10:40;7.03;;;6.43;;
9986;SDS011;5033;46.310;11.214;2023-11-21T09:13:08;6.88;;;6.28;;
9986;SDS011;5033;46.310;11.214;2023-11-21T09:15:35;6.53;;;6.00;;
9986;SDS011;5033;46.310;11.214;2023-11-21T09:18:04;6.25;;;5.75;;
9986;SDS011;5033;46.310;11.214;2023-11-21T09:20:31;5.93;;;5.43;;
9986;SDS011;5033;46.310;11.214;2023-11-21T09:22:58;6.65;;;6.10;;
9986;SDS011;5033;46.310;11.214;2023-11-21T09:25:25;7.28;;;5.90;;
9986;SDS011;5033;46.310;11.214;2023-11-21T09:27:54;5.90;;;5.38;;
9986;SDS011;5033;46.310;11.214;2023-11-21T09:30:21;6.57;;;5.63;;
9986;SDS011;5033;46.310;11.214;2023-11-21T09:32:49;5.85;;;5.35;;
9986;SDS011;5033;46.310;11.214;2023-11-21T09:35:18;6.20;;;5.70;;
9986;SDS011;5033;46.310;11.214;2023-11-21T09:37:45;7.10;;;6.43;;
9986;SDS011;5033;46.310;11.214;2023-11-21T09:40:12;7.10;;;5.82;;
9986;SDS011;5033;46.310;11.214;2023-11-21T09:42:43;7.15;;;6.22;;
9986;SDS011;5033;46.310;11.214;2023-11-21T09:45:17;5.95;;;5.47;;
9986;SDS011;5033;46.310;11.214;2023-11-21T09:47:50;6.07;;;5.57;;
9986;SDS011;5033;46.310;11.214;2023-11-21T09:50:20;5.82;;;5.32;;
9986;SDS011;5033;46.310;11.214;2023-11-21T09:52:49;6.75;;;6.15;;
9986;SDS011;5033;46.310;11.214;2023-11-21T09:55:22;7.07;;;6.38;;
9986;SDS011;5033;46.310;11.214;2023-11-21T09:57:53;8.55;;;7.75;;
9986;SDS011;5033;46.310;11.214;2023-11-21T10:00:23;12.02;;;7.40;;
9986;SDS011;5033;46.310;11.214;2023-11-21T10:02:50;14.45;;;11.00;;
9986;SDS011;5033;46.310;11.214;2023-11-21T10:05:20;11.63;;;8.35;;
9986;SDS011;5033;46.310;11.214;2023-11-21T10:07:48;8.57;;;7.30;;
9986;SDS011;5033;46.310;11.214;2023-11-21T10:10:17;7.88;;;7.10;;
9986;SDS011;5033;46.310;11.214;2023-11-21T10:12:48;8.90;;;7.20;;
9986;SDS011;5033;46.310;11.214;2023-11-21T10:15:18;7.38;;;6.72;;
9986;SDS011;5033;46.310;11.214;2023-11-21T10:17:48;7.80;;;7.00;;
9986;SDS011;5033;46.310;11.214;2023-11-21T10:20:18;6.95;;;6.35;;
9986;SDS011;5033;46.310;11.214;2023-11-21T10:22:49;6.97;;;6.35;;
9986;SDS011;5033;46.310;11.214;2023-11-21T10:25:16;6.90;;;6.38;;
9986;SDS011;5033;46.310;11.214;2023-11-21T10:27:47;7.00;;;6.40;;
9986;SDS011;5033;46.310;11.214;2023-11-21T10:30:16;8.63;;;7.85;;
9986;SDS011;5033;46.310;11.214;2023-11-21T10:32:43;7.20;;;6.60;;
9986;SDS011;5033;46.310;11.214;2023-11-21T10:35:11;7.97;;;7.28;;
9986;SDS011;5033;46.310;11.214;2023-11-21T10:37:40;6.53;;;5.93;;
9986;SDS011;5033;46.310;11.214;2023-11-21T10:40:09;7.25;;;6.57;;
9986;SDS011;5033;46.310;11.214;2023-11-21T10:42:37;6.97;;;6.38;;
9986;SDS011;5033;46.310;11.214;2023-11-21T10:45:05;6.43;;;5.82;;
9986;SDS011;5033;46.310;11.214;2023-11-21T10:47:38;7.63;;;6.95;;
9986;SDS011;5033;46.310;11.214;2023-11-21T10:50:05;6.90;;;6.30;;
9986;SDS011;5033;46.310;11.214;2023-11-21T10:52:36;6.18;;;5.68;;
9986;SDS011;5033;46.310;11.214;2023-11-21T10:55:12;10.40;;;9.30;;
9986;SDS011;5033;46.310;11.214;2023-11-21T10:57:43;7.75;;;7.00;;
9986;SDS011;5033;46.310;11.214;2023-11-21T11:00:13;6.38;;;5.88;;
9986;SDS011;5033;46.310;11.214;2023-11-21T11:02:44;7.45;;;6.75;;
9986;SDS011;5033;46.310;11.214;2023-11-21T11:05:13;6.50;;;5.90;;
9986;SDS011;5033;46.310;11.214;2023-11-21T11:07:42;7.82;;;7.05;;
9986;SDS011;5033;46.310;11.214;2023-11-21T11:10:12;7.00;;;6.40;;
9986;SDS011;5033;46.310;11.214;2023-11-21T11:12:40;7.95;;;7.15;;
9986;SDS011;5033;46.310;11.214;2023-11-21T11:15:08;6.88;;;6.38;;
9986;SDS011;5033;46.310;11.214;2023-11-21T11:17:35;7.10;;;6.47;;
9986;SDS011;5033;46.310;11.214;2023-11-21T11:20:06;7.40;;;6.70;;
9986;SDS011;5033;46.310;11.214;2023-11-21T11:22:36;9.70;;;8.15;;
9986;SDS011;5033;46.310;11.214;2023-11-21T11:25:18;7.72;;;6.93;;
9986;SDS011;5033;46.310;11.214;2023-11-21T11:27:54;8.18;;;7.47;;
9986;SDS011;5033;46.310;11.214;2023-11-21T11:30:31;8.90;;;7.25;;
9986;SDS011;5033;46.310;11.214;2023-11-21T11:33:12;7.45;;;6.75;;
9986;SDS011;5033;46.310;11.214;2023-11-21T11:35:52;7.60;;;6.90;;
9986;SDS011;5033;46.310;11.214;2023-11-21T11:38:22;7.22;;;6.47;;
9986;SDS011;5033;46.310;11.214;2023-11-21T11:40:53;6.35;;;5.63;;
9986;SDS011;5033;46.310;11.214;2023-11-21T11:43:29;6.50;;;5.90;;
9986;SDS011;5033;46.310;11.214;2023-11-21T11:46:05;9.13;;;7.38;;
9986;SDS011;5033;46.310;11.214;2023-11-21T11:48:34;6.90;;;6.22;;
9986;SDS011;5033;46.310;11.214;2023-11-21T11:51:05;7.32;;;6.63;;
9986;SDS011;5033;46.310;11.214;2023-11-21T11:53:38;7.32;;;6.68;;
9986;SDS011;5033;46.310;11.214;2023-11-21T11:56:24;6.90;;;6.13;;
9986;SDS011;5033;46.310;11.214;2023-11-21T11:58:53;5.97;;;5.38;;
9986;SDS011;5033;46.310;11.214;2023-11-21T12:01:21;4.95;;;4.55;;
9986;SDS011;5033;46.310;11.214;2023-11-21T12:06:56;6.70;;;5.78;;
9986;SDS011;5033;46.310;11.214;2023-11-21T12:09:28;7.25;;;6.47;;
9986;SDS011;5033;46.310;11.214;2023-11-21T12:11:58;7.45;;;6.75;;
9986;SDS011;5033;46.310;11.214;2023-11-21T12:14:26;8.15;;;7.35;;
9986;SDS011;5033;46.310;11.214;2023-11-21T12:16:54;8.20;;;7.47;;
9986;SDS011;5033;46.310;11.214;2023-11-21T12:19:21;7.50;;;6.82;;
9986;SDS011;5033;46.310;11.214;2023-11-21T12:21:49;6.82;;;6.05;;
9986;SDS011;5033;46.310;11.214;2023-11-21T12:24:17;5.85;;;5.25;;
9986;SDS011;5033;46.310;11.214;2023-11-21T12:26:44;5.57;;;4.97;;
9986;SDS011;5033;46.310;11.214;2023-11-21T12:29:12;11.20;;;7.90;;
9986;SDS011;5033;46.310;11.214;2023-11-21T12:31:40;11.73;;;8.68;;
9986;SDS011;5033;46.310;11.214;2023-11-21T12:34:07;9.05;;;7.72;;
9986;SDS011;5033;46.310;11.214;2023-11-21T12:36:36;8.48;;;6.90;;
9986;SDS011;5033;46.310;11.214;2023-11-21T12:39:04;7.75;;;6.53;;
9986;SDS011;5033;46.310;11.214;2023-11-21T12:41:31;7.45;;;6.75;;
9986;SDS011;5033;46.310;11.214;2023-11-21T12:43:58;6.53;;;5.90;;
9986;SDS011;5033;46.310;11.214;2023-11-21T12:46:26;8.07;;;6.05;;
9986;SDS011;5033;46.310;11.214;2023-11-21T12:48:56;5.93;;;5.32;;
9986;SDS011;5033;46.310;11.214;2023-11-21T12:51:23;4.75;;;4.35;;
9986;SDS011;5033;46.310;11.214;2023-11-21T12:53:51;5.68;;;5.18;;
9986;SDS011;5033;46.310;11.214;2023-11-21T12:56:18;5.10;;;4.70;;
9986;SDS011;5033;46.310;11.214;2023-11-21T12:58:49;5.93;;;5.32;;
9986;SDS011;5033;46.310;11.214;2023-11-21T13:01:17;5.45;;;5.05;;
9986;SDS011;5033;46.310;11.214;2023-11-21T13:03:48;4.85;;;4.38;;
9986;SDS011;5033;46.310;11.214;2023-11-21T13:06:17;4.80;;;4.45;;
9986;SDS011;5033;46.310;11.214;2023-11-21T13:08:44;5.53;;;4.72;;
9986;SDS011;5033;46.310;11.214;2023-11-21T13:11:12;4.50;;;4.07;;
9986;SDS011;5033;46.310;11.214;2023-11-21T13:13:40;4.70;;;4.38;;
9986;SDS011;5033;46.310;11.214;2023-11-21T13:16:08;4.28;;;3.97;;
9986;SDS011;5033;46.310;11.214;2023-11-21T13:18:36;4.38;;;3.90;;
9986;SDS011;5033;46.310;11.214;2023-11-21T13:21:07;4.30;;;4.00;;
9986;SDS011;5033;46.310;11.214;2023-11-21T13:23:38;4.53;;;4.10;;
9986;SDS011;5033;46.310;11.214;2023-11-21T13:26:06;4.45;;;4.15;;
9986;SDS011;5033;46.310;11.214;2023-11-21T13:28:34;5.65;;;4.07;;
9986;SDS011;5033;46.310;11.214;2023-11-21T13:31:02;4.50;;;4.10;;
9986;SDS011;5033;46.310;11.214;2023-11-21T13:33:34;4.57;;;4.20;;
9986;SDS011;5033;46.310;11.214;2023-11-21T13:36:03;4.82;;;4.38;;
9986;SDS011;5033;46.310;11.214;2023-11-21T13:38:34;4.53;;;4.07;;
9986;SDS011;5033;46.310;11.214;2023-11-21T13:41:02;5.07;;;4.47;;
9986;SDS011;5033;46.310;11.214;2023-11-21T13:43:32;5.20;;;4.70;;
9986;SDS011;5033;46.310;11.214;2023-11-21T13:45:59;5.10;;;4.60;;
9986;SDS011;5033;46.310;11.214;2023-11-21T13:48:33;4.65;;;4.25;;
9986;SDS011;5033;46.310;11.214;2023-11-21T13:51:07;4.97;;;4.53;;
9986;SDS011;5033;46.310;11.214;2023-11-21T13:53:42;4.82;;;4.43;;
9986;SDS011;5033;46.310;11.214;2023-11-21T13:56:10;4.60;;;4.20;;
9986;SDS011;5033;46.310;11.214;2023-11-21T13:58:41;4.50;;;4.10;;
9986;SDS011;5033;46.310;11.214;2023-11-21T14:01:12;4.47;;;4.18;;
9986;SDS011;5033;46.310;11.214;2023-11-21T14:03:57;4.63;;;4.22;;
9986;SDS011;5033;46.310;11.214;2023-11-21T14:06:33;4.93;;;4.35;;
9986;SDS011;5033;46.310;11.214;2023-11-21T14:09:12;4.50;;;4.10;;
9986;SDS011;5033;46.310;11.214;2023-11-21T14:11:47;4.07;;;3.78;;
9986;SDS011;5033;46.310;11.214;2023-11-21T14:14:18;4.35;;;4.05;;
9986;SDS011;5033;46.310;11.214;2023-11-21T14:16:45;4.43;;;4.07;;
9986;SDS011;5033;46.310;11.214;2023-11-21T14:19:12;4.20;;;3.90;;
9986;SDS011;5033;46.310;11.214;2023-11-21T14:21:42;3.80;;;3.50;;
9986;SDS011;5033;46.310;11.214;2023-11-21T14:24:11;4.70;;;4.30;;
9986;SDS011;5033;46.310;11.214;2023-11-21T14:26:42;4.43;;;4.03;;
9986;SDS011;5033;46.310;11.214;2023-11-21T14:29:11;4.55;;;4.15;;
9986;SDS011;5033;46.310;11.214;2023-11-21T14:31:39;4.05;;;3.75;;
9986;SDS011;5033;46.310;11.214;2023-11-21T14:34:07;4.18;;;3.88;;
9986;SDS011;5033;46.310;11.214;2023-11-21T14:36:34;3.92;;;3.63;;
9986;SDS011;5033;46.310;11.214;2023-11-21T14:39:02;6.68;;;6.07;;
9986;SDS011;5033;46.310;11.214;2023-11-21T14:41:33;9.82;;;8.82;;
9986;SDS011;5033;46.310;11.214;2023-11-21T14:44:02;13.68;;;11.05;;
9986;SDS011;5033;46.310;11.214;2023-11-21T14:46:32;12.10;;;9.82;;
9986;SDS011;5033;46.310;11.214;2023-11-21T14:49:00;9.77;;;8.77;;
9986;SDS011;5033;46.310;11.214;2023-11-21T14:51:44;12.32;;;9.60;;
9986;SDS011;5033;46.310;11.214;2023-11-21T14:54:25;8.45;;;7.47;;
9986;SDS011;5033;46.310;11.214;2023-11-21T14:57:06;9.27;;;8.25;;
9986;SDS011;5033;46.310;11.214;2023-11-21T14:59:36;8.75;;;7.38;;
9986;SDS011;5033;46.310;11.214;2023-11-21T15:02:02;7.50;;;6.80;;
9986;SDS011;5033;46.310;11.214;2023-11-21T15:04:40;7.78;;;6.90;;
9986;SDS011;5033;46.310;11.214;2023-11-21T15:07:08;8.52;;;7.72;;
9986;SDS011;5033;46.310;11.214;2023-11-21T15:09:34;7.88;;;6.78;;
9986;SDS011;5033;46.310;11.214;2023-11-21T15:12:04;6.72;;;6.13;;